Time;durP1;ratioP1;P1;durP2;ratioP2;P2;SDS_P1;SDS_P2;PMS_P1;PMS_P2;Temp;Humidity;BMP_temperature;BMP_pressure;BME280_temperature;BME280_humidity;BME280_pressure;Samples;Min_cycle;Max_cycle;Signal;HPM_P1;HPM_P2
2024/01/09 00:01:00;;;;;;;;;;;;;;;-5.63;61.50;103306.44;4184569;28;20814;-68
2024/01/09 00:03:01;;;;;;;;;;;;;;;-5.60;61.66;103305.53;4185727;28;20370;-70
2024/01/09 00:05:03;;;;;;;;;;;;;;;-5.63;61.55;103305.56;4185332;28;19932;-69
2024/01/09 00:07:07;;;;;;;;;;;;;;;-5.62;61.62;103308.19;4186637;28;20498;-69
2024/01/09 00:09:12;;;;;;;;;;;;;;;-5.62;61.65;103315.22;4188270;28;20405;-69
2024/01/09 00:11:14;;;;;;;;;;;;;;;-5.63;61.70;103310.81;4187971;28;20028;-68
2024/01/09 00:13:16;;;;;;;;;;;;;;;-5.66;61.51;103314.38;4188572;28;20118;-69
2024/01/09 00:15:21;;;;;;;;;;;;;;;-5.64;61.80;103315.22;4188431;28;20206;-69
2024/01/09 00:17:22;;;;;;;;;;;;;;;-5.67;61.68;103320.50;4188162;28;20469;-70
2024/01/09 00:19:24;;;;;;;;;;;;;;;-5.70;61.84;103324.91;4188796;28;20011;-69
2024/01/09 00:21:26;;;;;;;;;;;;;;;-5.74;61.81;103324.03;4190422;28;20031;-69
2024/01/09 00:23:28;;;;;;;;;;;;;;;-5.76;61.96;103319.69;4190508;28;20377;-68
2024/01/09 00:25:30;;;;;;;;;;;;;;;-5.73;62.21;103331.06;4190234;28;19935;-70
2024/01/09 00:27:32;;;;;;;;;;;;;;;-5.74;62.12;103331.94;4190542;28;20011;-69
2024/01/09 00:29:35;;;;;;;;;;;;;;;-5.75;61.95;103337.22;4189735;28;20055;-69
2024/01/09 00:31:37;;;;;;;;;;;;;;;-5.75;61.97;103334.56;4179017;28;20424;-70
2024/01/09 00:33:39;;;;;;;;;;;;;;;-5.77;61.92;103337.22;4192044;28;20015;-70
2024/01/09 00:35:41;;;;;;;;;;;;;;;-5.79;62.01;103333.72;4179867;28;20032;-70
2024/01/09 00:37:43;;;;;;;;;;;;;;;-5.78;62.05;103330.22;4179634;28;20015;-69
2024/01/09 00:39:46;;;;;;;;;;;;;;;-5.80;61.77;103335.50;4190191;28;20051;-69
2024/01/09 00:41:49;;;;;;;;;;;;;;;-5.82;61.85;103337.25;4191350;28;20027;-69
2024/01/09 00:43:51;;;;;;;;;;;;;;;-5.79;62.13;103336.34;4172558;28;20032;-68
2024/01/09 00:45:53;;;;;;;;;;;;;;;-5.83;61.84;103331.97;4191485;28;19931;-69
2024/01/09 00:47:55;;;;;;;;;;;;;;;-5.84;62.00;103328.50;4190797;28;20034;-69
2024/01/09 00:49:57;;;;;;;;;;;;;;;-5.86;61.99;103332.00;4190340;28;20442;-69
2024/01/09 00:52:00;;;;;;;;;;;;;;;-5.88;61.89;103334.63;4191905;28;20023;-69
2024/01/09 00:54:03;;;;;;;;;;;;;;;-5.88;61.91;103332.00;4189115;28;20007;-70
2024/01/09 00:56:06;;;;;;;;;;;;;;;-5.89;62.03;103335.53;4191084;28;20430;-69
2024/01/09 00:58:08;;;;;;;;;;;;;;;-5.92;61.80;103338.19;4189587;28;20023;-69
2024/01/09 01:00:10;;;;;;;;;;;;;;;-5.93;61.79;103336.41;4190550;28;20457;-69
2024/01/09 01:02:12;;;;;;;;;;;;;;;-5.93;62.07;103336.41;4190125;28;20434;-71
2024/01/09 01:04:15;;;;;;;;;;;;;;;-5.93;62.07;103335.56;4190783;28;20378;-70
2024/01/09 01:06:17;;;;;;;;;;;;;;;-5.95;62.12;103335.56;4192447;28;19971;-70
2024/01/09 01:08:18;;;;;;;;;;;;;;;-6.01;61.93;103338.25;4190563;28;20027;-71
2024/01/09 01:10:21;;;;;;;;;;;;;;;-5.96;62.13;103343.50;4190900;28;20011;-70
2024/01/09 01:12:23;;;;;;;;;;;;;;;-6.03;61.96;103332.13;4189645;28;20048;-69
2024/01/09 01:14:26;;;;;;;;;;;;;;;-6.08;61.94;103345.31;4191254;28;20036;-69
2024/01/09 01:16:28;;;;;;;;;;;;;;;-6.08;61.92;103349.66;4189387;28;20015;-69
2024/01/09 01:18:30;;;;;;;;;;;;;;;-6.06;62.15;103347.94;4189976;28;20015;-69
2024/01/09 01:20:32;;;;;;;;;;;;;;;-6.05;62.16;103337.41;4188700;28;20022;-69
2024/01/09 01:22:34;;;;;;;;;;;;;;;-6.07;62.00;103343.53;4190778;28;20015;-69
2024/01/09 01:24:36;;;;;;;;;;;;;;;-6.09;61.98;103340.91;4189320;28;20028;-70
2024/01/09 01:26:38;;;;;;;;;;;;;;;-6.10;62.23;103335.66;4189792;28;19936;-69
2024/01/09 01:28:40;;;;;;;;;;;;;;;-6.16;61.98;103337.44;4189661;28;20016;-70
2024/01/09 01:30:44;;;;;;;;;;;;;;;-6.14;62.32;103336.53;4189368;28;20426;-70
2024/01/09 01:32:46;;;;;;;;;;;;;;;-6.18;62.33;103346.19;4189909;28;20019;-70
2024/01/09 01:34:48;;;;;;;;;;;;;;;-6.18;62.37;103340.94;4172667;28;19960;-70
2024/01/09 01:36:50;;;;;;;;;;;;;;;-6.18;62.48;103333.91;4190125;28;20011;-70
2024/01/09 01:38:52;;;;;;;;;;;;;;;-6.24;62.49;103336.56;4190196;28;20375;-71
2024/01/09 01:40:52;;;;;;;;;;;;;;;-6.20;62.75;103335.69;4188801;28;20011;-71
2024/01/09 01:42:56;;;;;;;;;;;;;;;-6.18;62.80;103333.91;4190484;28;19964;-69
2024/01/09 01:44:58;;;;;;;;;;;;;;;-6.22;62.45;103331.28;4188809;28;20354;-69
2024/01/09 01:47:01;;;;;;;;;;;;;;;-6.23;62.60;103322.53;4189190;28;19960;-70
2024/01/09 01:49:03;;;;;;;;;;;;;;;-6.29;62.80;103329.56;4188819;28;20022;-69
2024/01/09 01:51:06;;;;;;;;;;;;;;;-6.26;62.97;103340.97;4189673;28;20027;-70
2024/01/09 01:53:08;;;;;;;;;;;;;;;-6.26;63.03;103333.06;4188922;28;20027;-69
2024/01/09 01:55:10;;;;;;;;;;;;;;;-6.26;63.14;103333.06;4190510;28;20011;-69
2024/01/09 01:57:11;;;;;;;;;;;;;;;-6.26;63.19;103335.69;4188492;28;20043;-70
2024/01/09 01:59:13;;;;;;;;;;;;;;;-6.27;63.24;103339.22;4189353;28;20029;-70
2024/01/09 02:01:16;;;;;;;;;;;;;;;-6.26;63.21;103334.84;4185648;28;20504;-69
2024/01/09 02:03:19;;;;;;;;;;;;;;;-6.28;63.21;103337.47;4188635;28;20334;-70
2024/01/09 02:05:20;;;;;;;;;;;;;;;-6.22;63.27;103347.06;4188479;28;20126;-70
2024/01/09 02:07:22;;;;;;;;;;;;;;;-6.23;63.32;103343.59;4189067;28;20381;-69
2024/01/09 02:09:24;;;;;;;;;;;;;;;-6.25;63.28;103336.59;4188347;28;20012;-70
2024/01/09 02:11:26;;;;;;;;;;;;;;;-6.26;63.17;103334.84;4189569;28;20024;-71
2024/01/09 02:13:27;;;;;;;;;;;;;;;-6.30;63.02;103330.44;4188627;28;20019;-69
2024/01/09 02:15:29;;;;;;;;;;;;;;;-6.29;63.02;103338.34;4189997;28;20348;-70
2024/01/09 02:17:30;;;;;;;;;;;;;;;-6.31;63.21;103334.84;4188804;28;20008;-70
2024/01/09 02:19:34;;;;;;;;;;;;;;;-6.32;63.26;103338.34;4189278;28;20019;-69
2024/01/09 02:21:37;;;;;;;;;;;;;;;-6.29;63.51;103330.44;4188826;28;20016;-70
2024/01/09 02:23:39;;;;;;;;;;;;;;;-6.33;63.14;103333.97;4188645;28;20465;-69
2024/01/09 02:25:41;;;;;;;;;;;;;;;-6.36;63.17;103340.13;4188329;28;20004;-70
2024/01/09 02:27:45;;;;;;;;;;;;;;;-6.35;63.37;103338.34;4188665;28;20010;-70
2024/01/09 02:29:51;;;;;;;;;;;;;;;-6.35;63.43;103335.72;4187810;28;20023;-69
2024/01/09 02:31:52;;;;;;;;;;;;;;;-6.39;63.40;103339.25;4189240;28;20434;-69
2024/01/09 02:33:54;;;;;;;;;;;;;;;-6.42;63.18;103336.63;4187085;28;19938;-69
2024/01/09 02:35:56;;;;;;;;;;;;;;;-6.42;63.39;103344.53;4188514;28;20608;-68
2024/01/09 02:37:57;;;;;;;;;;;;;;;-6.45;63.22;103341.91;4188079;28;20023;-68
2024/01/09 02:40:00;;;;;;;;;;;;;;;-6.46;63.37;103342.75;4189129;28;19981;-69
2024/01/09 02:42:02;;;;;;;;;;;;;;;-6.48;63.48;103341.91;4190269;28;19999;-69
2024/01/09 02:44:04;;;;;;;;;;;;;;;-6.51;63.51;103342.78;4190877;28;20445;-69
2024/01/09 02:46:07;;;;;;;;;;;;;;;-6.49;63.72;103345.41;4189005;28;20040;-68
2024/01/09 02:48:09;;;;;;;;;;;;;;;-6.47;63.79;103351.53;4193364;28;19962;-68
2024/01/09 02:50:11;;;;;;;;;;;;;;;-6.53;63.61;103345.41;4189862;28;20011;-68
2024/01/09 02:52:13;;;;;;;;;;;;;;;-6.54;63.63;103343.63;4189088;28;20024;-68
2024/01/09 02:54:15;;;;;;;;;;;;;;;-6.54;63.59;103345.41;4188539;28;20020;-70
2024/01/09 02:56:17;;;;;;;;;;;;;;;-6.53;63.66;103337.50;4188649;28;20020;-68
2024/01/09 02:58:19;;;;;;;;;;;;;;;-6.53;63.95;103342.78;4189193;28;20020;-68
2024/01/09 03:00:21;;;;;;;;;;;;;;;-6.49;64.11;103346.25;4188824;28;20019;-68
2024/01/09 03:02:24;;;;;;;;;;;;;;;-6.52;63.95;103347.16;4188265;28;20383;-69
2024/01/09 03:04:26;;;;;;;;;;;;;;;-6.53;63.91;103339.28;4188632;28;20024;-70
2024/01/09 03:06:28;;;;;;;;;;;;;;;-6.55;63.79;103346.28;4189831;28;20024;-69
2024/01/09 03:08:30;;;;;;;;;;;;;;;-6.58;63.89;103352.44;4188284;28;19925;-70
2024/01/09 03:10:32;;;;;;;;;;;;;;;-6.55;64.12;103347.16;4188338;28;20627;-68
2024/01/09 03:12:34;;;;;;;;;;;;;;;-6.55;64.10;103347.16;4188001;28;20020;-69
2024/01/09 03:14:36;;;;;;;;;;;;;;;-6.52;64.17;103343.63;4188608;28;20358;-69
2024/01/09 03:16:38;;;;;;;;;;;;;;;-6.52;64.00;103351.53;4188103;28;20031;-68
2024/01/09 03:18:42;;;;;;;;;;;;;;;-6.54;64.12;103342.78;4194147;28;20480;-69
2024/01/09 03:20:44;;;;;;;;;;;;;;;-6.54;64.17;103350.66;4188020;28;20027;-68
2024/01/09 03:22:46;;;;;;;;;;;;;;;-6.56;64.04;103348.03;4188188;28;20141;-69
2024/01/09 03:24:47;;;;;;;;;;;;;;;-6.59;64.13;103344.53;4187661;28;20031;-70
2024/01/09 03:26:49;;;;;;;;;;;;;;;-6.63;63.98;103348.03;4188665;28;19932;-69
2024/01/09 03:28:51;;;;;;;;;;;;;;;-6.64;63.97;103346.31;4189304;28;20367;-69
2024/01/09 03:30:53;;;;;;;;;;;;;;;-6.70;64.16;103342.78;4187528;28;20014;-69
2024/01/09 03:32:54;;;;;;;;;;;;;;;-6.65;64.49;103348.03;4187195;28;20357;-71
2024/01/09 03:34:58;;;;;;;;;;;;;;;-6.71;64.30;103351.56;4189066;28;20116;-68
2024/01/09 03:36:59;;;;;;;;;;;;;;;-6.73;64.40;103355.06;4187324;28;20015;-69
2024/01/09 03:39:00;;;;;;;;;;;;;;;-6.78;64.35;103354.22;4188375;28;20024;-71
2024/01/09 03:41:03;;;;;;;;;;;;;;;-6.78;64.55;103352.44;4190195;28;20385;-71
2024/01/09 03:43:06;;;;;;;;;;;;;;;-6.84;64.52;103354.22;4191987;28;20023;-71
2024/01/09 03:45:08;;;;;;;;;;;;;;;-6.86;64.71;103348.06;4191045;28;20450;-72
2024/01/09 03:47:10;;;;;;;;;;;;;;;-6.85;64.96;103349.81;4190739;28;19988;-72
2024/01/09 03:49:12;;;;;;;;;;;;;;;-6.88;64.79;103350.69;4191706;28;19964;-73
2024/01/09 03:51:15;;;;;;;;;;;;;;;-6.88;65.07;103346.31;4190518;28;20443;-72
2024/01/09 03:53:17;;;;;;;;;;;;;;;-6.85;65.17;103349.81;4191119;28;20396;-71
2024/01/09 03:55:19;;;;;;;;;;;;;;;-6.86;65.16;103343.69;4191452;28;20027;-70
2024/01/09 03:57:21;;;;;;;;;;;;;;;-6.87;65.19;103347.19;4190973;28;20027;-71
2024/01/09 03:59:23;;;;;;;;;;;;;;;-6.92;65.23;103341.94;4179852;28;20036;-68
2024/01/09 04:01:25;;;;;;;;;;;;;;;-6.92;65.13;103346.31;4190622;28;20019;-69
2024/01/09 04:03:27;;;;;;;;;;;;;;;-6.92;65.15;103348.94;4190512;28;20019;-69
2024/01/09 04:05:28;;;;;;;;;;;;;;;-6.99;65.13;103334.06;4190104;28;20020;-68
2024/01/09 04:07:31;;;;;;;;;;;;;;;-7.13;65.12;103340.19;4191585;28;20395;-69
2024/01/09 04:09:34;;;;;;;;;;;;;;;-7.08;65.39;103340.19;4190554;28;19975;-71
2024/01/09 04:11:38;;;;;;;;;;;;;;;-7.07;65.37;103344.56;4190834;28;20020;-68
2024/01/09 04:13:40;;;;;;;;;;;;;;;-7.06;65.56;103349.81;4191096;28;20020;-70
2024/01/09 04:15:42;;;;;;;;;;;;;;;-7.07;65.48;103344.56;4190847;28;20031;-71
2024/01/09 04:17:44;;;;;;;;;;;;;;;-7.07;65.67;103339.31;4191166;28;20032;-71
2024/01/09 04:19:46;;;;;;;;;;;;;;;-7.08;65.52;103337.56;4190661;28;20379;-70
2024/01/09 04:21:48;;;;;;;;;;;;;;;-7.08;65.60;103348.06;4189870;28;20479;-70
2024/01/09 04:23:52;;;;;;;;;;;;;;;-7.07;65.80;103352.44;4189537;28;20011;-70
2024/01/09 04:25:54;;;;;;;;;;;;;;;-7.09;65.85;103352.44;4191228;28;20086;-70
2024/01/09 04:27:55;;;;;;;;;;;;;;;-7.14;65.71;103340.19;4190816;28;20425;-71
2024/01/09 04:29:57;;;;;;;;;;;;;;;-7.14;65.70;103346.31;4191817;28;19932;-70
2024/01/09 04:31:59;;;;;;;;;;;;;;;-7.19;65.63;103348.06;4194711;28;20023;-71
2024/01/09 04:34:02;;;;;;;;;;;;;;;-7.26;65.70;103349.81;4191064;28;20024;-71
2024/01/09 04:36:04;;;;;;;;;;;;;;;-7.22;65.96;103342.81;4192087;28;20007;-71
2024/01/09 04:38:06;;;;;;;;;;;;;;;-7.18;66.13;103346.31;4191268;28;20023;-71
2024/01/09 04:40:10;;;;;;;;;;;;;;;-7.17;66.01;103348.06;4179461;28;20020;-71
2024/01/09 04:42:11;;;;;;;;;;;;;;;-7.22;65.91;103348.06;4190581;28;20366;-71
2024/01/09 04:44:13;;;;;;;;;;;;;;;-7.21;65.91;103348.94;4189901;28;20031;-70
2024/01/09 04:46:15;;;;;;;;;;;;;;;-7.18;66.09;103341.91;4190758;28;20012;-71
2024/01/09 04:48:17;;;;;;;;;;;;;;;-7.13;66.05;103344.53;4190050;28;20022;-70
2024/01/09 04:50:19;;;;;;;;;;;;;;;-7.15;65.93;103338.44;4190051;28;20595;-70
2024/01/09 04:52:20;;;;;;;;;;;;;;;-7.14;65.93;103348.06;4189454;28;20024;-71
2024/01/09 04:54:21;;;;;;;;;;;;;;;-7.15;65.95;103344.53;4190079;28;20024;-70
2024/01/09 04:56:25;;;;;;;;;;;;;;;-7.18;65.78;103346.31;4189913;28;20359;-71
2024/01/09 04:58:28;;;;;;;;;;;;;;;-7.16;65.85;103344.53;4190048;28;20011;-71
2024/01/09 05:00:30;;;;;;;;;;;;;;;-7.16;65.84;103339.28;4190214;28;20027;-70
2024/01/09 05:02:32;;;;;;;;;;;;;;;-7.18;65.75;103335.81;4189822;28;20477;-71
2024/01/09 05:04:33;;;;;;;;;;;;;;;-7.20;65.97;103338.44;4190238;28;20043;-71
2024/01/09 05:06:35;;;;;;;;;;;;;;;-7.22;65.76;103334.94;4179062;28;19925;-71
2024/01/09 05:08:37;;;;;;;;;;;;;;;-7.23;65.90;103342.81;4191305;28;20023;-70
2024/01/09 05:10:39;;;;;;;;;;;;;;;-7.20;66.04;103342.81;4189371;28;21132;-71
2024/01/09 05:12:42;;;;;;;;;;;;;;;-7.21;65.99;103348.94;4189464;28;20027;-70
2024/01/09 05:14:44;;;;;;;;;;;;;;;-7.24;66.16;103341.94;4188998;28;20019;-71
2024/01/09 05:16:46;;;;;;;;;;;;;;;-7.21;66.11;103356.81;4189121;28;20028;-70
2024/01/09 05:18:48;;;;;;;;;;;;;;;-7.26;66.09;103362.06;4190011;28;20039;-71
2024/01/09 05:20:50;;;;;;;;;;;;;;;-7.25;66.10;103355.94;4188493;28;20023;-70
2024/01/09 05:22:52;;;;;;;;;;;;;;;-7.23;66.21;103353.31;4188373;28;20805;-70
2024/01/09 05:24:54;;;;;;;;;;;;;;;-7.27;66.11;103352.44;4189307;28;20039;-73
2024/01/09 05:26:55;;;;;;;;;;;;;;;-7.25;66.10;103353.31;4189790;28;20020;-70
2024/01/09 05:28:58;;;;;;;;;;;;;;;-7.27;66.07;103352.44;4188666;28;20007;-71
2024/01/09 05:31:02;;;;;;;;;;;;;;;-7.27;66.25;103350.69;4189384;28;19924;-70
2024/01/09 05:33:04;;;;;;;;;;;;;;;-7.26;66.24;103343.66;4189015;28;20015;-69
2024/01/09 05:35:08;;;;;;;;;;;;;;;-7.22;66.25;103350.69;4188293;28;20469;-70
2024/01/09 05:37:10;;;;;;;;;;;;;;;-7.21;66.09;103348.94;4189800;28;20307;-70
2024/01/09 05:39:11;;;;;;;;;;;;;;;-7.20;66.09;103345.44;4188884;28;20027;-71
2024/01/09 05:41:18;;;;;;;;;;;;;;;-7.21;66.02;103341.03;4189230;28;20033;-70
2024/01/09 05:43:20;;;;;;;;;;;;;;;-7.18;66.23;103335.81;4188736;28;20390;-71
2024/01/09 05:45:24;;;;;;;;;;;;;;;-7.13;66.68;103336.66;4191138;28;19961;-70
2024/01/09 05:47:26;;;;;;;;;;;;;;;-7.12;66.71;103341.06;4189069;28;19935;-70
2024/01/09 05:49:28;;;;;;;;;;;;;;;-7.16;66.56;103340.19;4189007;28;20015;-70
2024/01/09 05:51:30;;;;;;;;;;;;;;;-7.19;66.12;103345.44;4188537;28;19978;-71
2024/01/09 05:53:32;;;;;;;;;;;;;;;-7.22;66.10;103340.19;4189550;28;20023;-71
2024/01/09 05:55:34;;;;;;;;;;;;;;;-7.21;66.22;103341.03;4189160;28;20039;-71
2024/01/09 05:57:36;;;;;;;;;;;;;;;-7.22;66.20;103347.16;4189138;28;20011;-72
2024/01/09 05:59:38;;;;;;;;;;;;;;;-7.24;66.07;103341.94;4188942;28;20027;-71
2024/01/09 06:01:41;;;;;;;;;;;;;;;-7.28;66.02;103346.28;4188284;28;20015;-72
2024/01/09 06:03:43;;;;;;;;;;;;;;;-7.25;66.27;103346.28;4187053;28;20497;-71
2024/01/09 06:05:45;;;;;;;;;;;;;;;-7.23;66.22;103345.44;4189088;28;20011;-71
2024/01/09 06:07:47;;;;;;;;;;;;;;;-7.22;66.15;103349.78;4189259;28;20361;-71
2024/01/09 06:09:48;;;;;;;;;;;;;;;-7.21;66.10;103351.56;4188990;28;20024;-71
2024/01/09 06:11:50;;;;;;;;;;;;;;;-7.17;66.22;103363.81;4189301;28;19947;-70
2024/01/09 06:13:53;;;;;;;;;;;;;;;-7.20;66.06;103361.19;4188651;28;20019;-71
2024/01/09 06:15:55;;;;;;;;;;;;;;;-7.21;66.04;103357.66;4188858;28;20047;-72
2024/01/09 06:17:59;;;;;;;;;;;;;;;-7.17;66.14;103366.44;4188643;28;20369;-71
2024/01/09 06:20:01;;;;;;;;;;;;;;;-7.17;66.11;103359.44;4188464;28;20019;-70
2024/01/09 06:22:03;;;;;;;;;;;;;;;-7.24;65.97;103357.69;4188405;28;20465;-71
2024/01/09 06:24:05;;;;;;;;;;;;;;;-7.24;66.09;103365.56;4188458;28;20012;-70
2024/01/09 06:26:07;;;;;;;;;;;;;;;-7.27;66.08;103360.31;4188567;28;20028;-71
2024/01/09 06:28:09;;;;;;;;;;;;;;;-7.28;66.14;103355.94;4188404;28;20040;-72
2024/01/09 06:30:12;;;;;;;;;;;;;;;-7.31;66.26;103362.03;4188552;28;20458;-72
2024/01/09 06:32:14;;;;;;;;;;;;;;;-7.27;66.32;103362.94;4188434;28;19932;-72
2024/01/09 06:34:17;;;;;;;;;;;;;;;-7.29;66.24;103365.56;4187986;28;20007;-72
2024/01/09 06:36:19;;;;;;;;;;;;;;;-7.33;66.22;103366.44;4188803;28;20023;-72
2024/01/09 06:38:21;;;;;;;;;;;;;;;-7.32;66.32;103364.66;4188586;28;20561;-72
2024/01/09 06:40:23;;;;;;;;;;;;;;;-7.35;66.17;103365.56;4188379;28;20838;-72
2024/01/09 06:42:25;;;;;;;;;;;;;;;-7.36;66.28;103358.53;4188129;28;20023;-72
2024/01/09 06:44:27;;;;;;;;;;;;;;;-7.34;66.37;103361.16;4187777;28;20050;-72
2024/01/09 06:46:29;;;;;;;;;;;;;;;-7.36;66.42;103373.44;4188637;28;20020;-71
2024/01/09 06:48:31;;;;;;;;;;;;;;;-7.39;66.21;103379.53;4188278;28;20363;-72
2024/01/09 06:50:34;;;;;;;;;;;;;;;-7.33;66.22;103376.94;4188775;28;20457;-72
2024/01/09 06:52:36;;;;;;;;;;;;;;;-7.33;66.23;103373.44;4170572;28;20032;-71
2024/01/09 06:54:38;;;;;;;;;;;;;;;-7.32;66.21;103376.06;4188883;28;20015;-72
2024/01/09 06:56:43;;;;;;;;;;;;;;;-7.33;66.10;103373.44;4188481;28;20115;-72
2024/01/09 06:58:46;;;;;;;;;;;;;;;-7.38;66.08;103375.16;4187823;28;20434;-72
2024/01/09 07:00:48;;;;;;;;;;;;;;;-7.38;66.28;103376.06;4188430;28;20054;-72
2024/01/09 07:02:50;;;;;;;;;;;;;;;-7.43;66.42;103378.66;4188463;28;20027;-72
2024/01/09 07:04:52;;;;;;;;;;;;;;;-7.44;66.57;103376.03;4188672;28;20011;-72
2024/01/09 07:06:54;;;;;;;;;;;;;;;-7.43;66.45;103367.25;4188080;28;20913;-73
2024/01/09 07:08:56;;;;;;;;;;;;;;;-7.43;66.38;103372.50;4188523;28;20032;-72
2024/01/09 07:10:58;;;;;;;;;;;;;;;-7.44;66.63;103376.91;4188711;28;20015;-72
2024/01/09 07:12:59;;;;;;;;;;;;;;;-7.40;66.44;103383.03;4187693;28;20072;-72
2024/01/09 07:15:01;;;;;;;;;;;;;;;-7.37;66.43;103372.53;4189308;28;20026;-73
2024/01/09 07:17:04;;;;;;;;;;;;;;;-7.32;66.67;103376.06;4193858;28;20022;-72
2024/01/09 07:19:06;;;;;;;;;;;;;;;-7.31;66.28;103375.16;4193615;28;20375;-72
2024/01/09 07:21:08;;;;;;;;;;;;;;;-7.34;66.26;103375.16;4193701;28;20359;-72
2024/01/09 07:23:11;;;;;;;;;;;;;;;-7.29;66.43;103383.94;4193524;28;20469;-72
2024/01/09 07:25:14;;;;;;;;;;;;;;;-7.31;66.27;103382.19;4194131;28;20015;-72
2024/01/09 07:27:16;;;;;;;;;;;;;;;-7.34;66.32;103385.66;4193637;28;20015;-72
2024/01/09 07:29:19;;;;;;;;;;;;;;;-7.33;66.49;103382.19;4193196;28;20020;-72
2024/01/09 07:31:21;;;;;;;;;;;;;;;-7.33;66.52;103387.44;4199411;28;20550;-71
2024/01/09 07:33:23;;;;;;;;;;;;;;;-7.32;66.51;103386.56;4193387;28;20314;-71
2024/01/09 07:35:25;;;;;;;;;;;;;;;-7.27;66.37;103376.06;4189905;28;20462;-71
2024/01/09 07:37:26;;;;;;;;;;;;;;;-7.27;66.42;103397.09;4190710;28;20311;-72
2024/01/09 07:39:29;;;;;;;;;;;;;;;-7.26;66.34;103388.31;4179912;28;19925;-72
2024/01/09 07:41:31;;;;;;;;;;;;;;;-7.22;66.59;103394.44;4191871;28;20031;-71
2024/01/09 07:43:33;;;;;;;;;;;;;;;-7.27;66.52;103387.44;4191899;28;20529;-71
2024/01/09 07:45:35;;;;;;;;;;;;;;;-7.26;66.56;103393.56;4192366;28;20018;-71
2024/01/09 07:47:37;;;;;;;;;;;;;;;-7.29;66.56;103393.56;4193728;28;20013;-72
2024/01/09 07:49:39;;;;;;;;;;;;;;;-7.28;66.65;103398.81;4192801;28;20925;-73
2024/01/09 07:51:41;;;;;;;;;;;;;;;-7.27;66.67;103395.31;4192648;28;20364;-72
2024/01/09 07:53:43;;;;;;;;;;;;;;;-7.26;66.77;103406.69;4192494;28;19940;-72
2024/01/09 07:55:46;;;;;;;;;;;;;;;-7.33;66.65;103408.44;4192834;28;20378;-71
2024/01/09 07:57:48;;;;;;;;;;;;;;;-7.33;66.60;103402.31;4192957;28;20020;-72
2024/01/09 07:59:50;;;;;;;;;;;;;;;-7.34;66.72;103406.66;4192846;28;20016;-72
2024/01/09 08:01:54;;;;;;;;;;;;;;;-7.35;66.60;103409.28;4192646;28;20378;-71
2024/01/09 08:03:56;;;;;;;;;;;;;;;-7.34;66.46;103406.66;4192755;28;20375;-72
2024/01/09 08:05:58;;;;;;;;;;;;;;;-7.32;66.44;103409.31;4182281;28;20019;-72
2024/01/09 08:08:00;;;;;;;;;;;;;;;-7.28;66.68;103405.81;4193015;28;20339;-71
2024/01/09 08:10:03;;;;;;;;;;;;;;;-7.31;66.38;103411.94;4193080;28;20404;-71
2024/01/09 08:12:06;;;;;;;;;;;;;;;-7.31;66.42;103409.31;4192993;28;20027;-71
2024/01/09 08:14:09;;;;;;;;;;;;;;;-7.33;66.47;103408.44;4192753;28;19947;-71
2024/01/09 08:16:11;;;;;;;;;;;;;;;-7.34;66.62;103409.31;4192675;28;20015;-72
2024/01/09 08:18:13;;;;;;;;;;;;;;;-7.30;66.77;103407.59;4192710;28;20019;-71
2024/01/09 08:20:15;;;;;;;;;;;;;;;-7.22;66.91;103407.56;4192804;28;20015;-71
2024/01/09 08:22:18;;;;;;;;;;;;;;;-7.18;67.02;103409.34;4191555;28;20319;-72
2024/01/09 08:24:20;;;;;;;;;;;;;;;-7.17;66.87;103404.09;4192546;28;20023;-72
2024/01/09 08:26:22;;;;;;;;;;;;;;;-7.12;66.92;103417.22;4192041;28;20362;-72
2024/01/09 08:28:25;;;;;;;;;;;;;;;-7.09;67.02;103404.09;4189843;28;20027;-72
2024/01/09 08:30:26;;;;;;;;;;;;;;;-7.09;66.90;103418.09;4190026;28;20066;-72
2024/01/09 08:32:28;;;;;;;;;;;;;;;-7.01;66.91;103412.00;4190446;28;20454;-72
2024/01/09 08:34:29;;;;;;;;;;;;;;;-6.99;66.89;103408.50;4190126;28;19971;-72
2024/01/09 08:36:31;;;;;;;;;;;;;;;-6.97;66.71;103413.78;4190463;28;19929;-72
2024/01/09 08:38:32;;;;;;;;;;;;;;;-6.95;66.55;103412.00;4189868;28;20012;-72
2024/01/09 08:40:34;;;;;;;;;;;;;;;-6.91;66.57;103412.03;4189793;28;19970;-72
2024/01/09 08:42:35;;;;;;;;;;;;;;;-6.86;66.39;103408.50;4190434;28;20044;-73
2024/01/09 08:44:39;;;;;;;;;;;;;;;-6.83;66.38;103413.75;4190137;28;19933;-72
2024/01/09 08:46:40;;;;;;;;;;;;;;;-6.78;66.44;103406.78;4190355;28;20023;-72
2024/01/09 08:48:42;;;;;;;;;;;;;;;-6.73;66.31;103402.38;4189825;28;19928;-73
2024/01/09 08:50:44;;;;;;;;;;;;;;;-6.68;66.41;103403.25;4189679;28;20019;-73
2024/01/09 08:52:46;;;;;;;;;;;;;;;-6.64;66.40;103401.53;4189303;28;20382;-72
2024/01/09 08:54:48;;;;;;;;;;;;;;;-6.59;66.35;103402.38;4195896;28;19968;-72
2024/01/09 08:56:50;;;;;;;;;;;;;;;-6.54;66.11;103403.25;4189284;28;20020;-72
2024/01/09 08:58:52;;;;;;;;;;;;;;;-6.50;65.94;103404.13;4179355;28;20039;-72
2024/01/09 09:00:55;;;;;;;;;;;;;;;-6.45;65.91;103405.00;4189998;28;20071;-72
2024/01/09 09:02:57;;;;;;;;;;;;;;;-6.40;65.87;103413.75;4189363;28;20043;-72
2024/01/09 09:04:59;;;;;;;;;;;;;;;-6.37;65.78;103406.72;4189781;28;20011;-73
2024/01/09 09:07:02;;;;;;;;;;;;;;;-6.32;65.67;103413.75;4190700;28;20019;-71
2024/01/09 09:09:04;;;;;;;;;;;;;;;-6.28;65.52;103413.75;4189738;28;20015;-72
2024/01/09 09:11:07;;;;;;;;;;;;;;;-6.22;65.49;103418.09;4189556;28;20015;-73
2024/01/09 09:13:09;;;;;;;;;;;;;;;-6.19;65.31;103416.38;4179614;28;20080;-72
2024/01/09 09:15:11;;;;;;;;;;;;;;;-6.12;65.20;103411.09;4189044;28;19990;-73
2024/01/09 09:17:16;;;;;;;;;;;;;;;-6.04;65.49;103412.81;4189574;28;20026;-72
2024/01/09 09:19:17;;;;;;;;;;;;;;;-5.98;65.30;103409.28;4189282;28;20012;-73
2024/01/09 09:21:19;;;;;;;;;;;;;;;-5.91;64.95;103408.34;4188910;28;20032;-73
2024/01/09 09:23:21;;;;;;;;;;;;;;;-5.87;64.64;103410.09;4188820;28;20397;-72
2024/01/09 09:25:23;;;;;;;;;;;;;;;-5.82;64.49;103400.41;4189195;28;20023;-73
2024/01/09 09:27:26;;;;;;;;;;;;;;;-5.74;64.56;103397.75;4189367;28;20035;-72
2024/01/09 09:29:26;;;;;;;;;;;;;;;-5.67;64.55;103410.03;4179001;28;20444;-73
2024/01/09 09:31:28;;;;;;;;;;;;;;;-5.59;64.53;103396.81;4189476;28;19994;-72
2024/01/09 09:33:33;;;;;;;;;;;;;;;-5.53;64.00;103393.28;4189084;28;20011;-71
2024/01/09 09:35:36;;;;;;;;;;;;;;;-5.52;63.88;103393.25;4189151;28;19931;-73
2024/01/09 09:37:38;;;;;;;;;;;;;;;-5.45;63.79;103386.22;4189440;28;20019;-73
2024/01/09 09:39:40;;;;;;;;;;;;;;;-5.44;63.58;103383.59;4189349;28;20019;-74
2024/01/09 09:41:43;;;;;;;;;;;;;;;-5.35;63.37;103376.50;4189270;28;20020;-73
2024/01/09 09:43:48;;;;;;;;;;;;;;;-5.29;63.03;103379.09;4189502;28;20361;-72
2024/01/09 09:45:50;;;;;;;;;;;;;;;-5.26;63.00;103379.09;4189564;28;20347;-72
2024/01/09 09:47:52;;;;;;;;;;;;;;;-5.23;62.28;103375.53;4190959;28;20023;-73
2024/01/09 09:49:55;;;;;;;;;;;;;;;-5.18;62.01;103379.91;4189721;28;20015;-73
2024/01/09 09:51:56;;;;;;;;;;;;;;;-5.11;62.10;103375.47;4191169;28;20034;-72
2024/01/09 09:53:58;;;;;;;;;;;;;;;-5.06;61.85;103376.31;4188925;28;20849;-73
2024/01/09 09:56:00;;;;;;;;;;;;;;;-5.02;61.50;103378.03;4188895;28;19939;-73
2024/01/09 09:58:02;;;;;;;;;;;;;;;-4.97;61.41;103378.00;4188541;28;20012;-73
2024/01/09 10:00:05;;;;;;;;;;;;;;;-4.92;61.51;103379.72;4188931;28;20023;-72
2024/01/09 10:02:10;;;;;;;;;;;;;;;-4.86;61.23;103370.00;4188695;28;20447;-72
2024/01/09 10:04:16;;;;;;;;;;;;;;;-4.81;61.38;103371.72;4189369;28;20453;-73
2024/01/09 10:06:19;;;;;;;;;;;;;;;-4.76;61.36;103375.19;4179051;28;20430;-73
2024/01/09 10:08:27;;;;;;;;;;;;;;;-4.71;61.39;103370.75;4189249;28;20364;-72
2024/01/09 10:10:29;;;;;;;;;;;;;;;-4.64;61.46;103365.41;4188971;28;20019;-72
2024/01/09 10:12:31;;;;;;;;;;;;;;;-4.59;61.44;103364.50;4188686;28;20060;-73
2024/01/09 10:14:33;;;;;;;;;;;;;;;-4.55;61.19;103360.06;4189119;28;20442;-74
2024/01/09 10:16:48;;;;;;;;;;;;;;;-4.50;61.13;103363.50;4189986;28;20368;-74
2024/01/09 10:18:54;;;;;;;;;;;;;;;-4.47;60.70;103366.13;4189217;28;20042;-72
2024/01/09 10:20:56;;;;;;;;;;;;;;;-4.41;60.83;103370.47;4188803;28;20063;-72
2024/01/09 10:23:00;;;;;;;;;;;;;;;-4.37;60.78;103361.66;4188156;28;20007;-73
2024/01/09 10:25:04;;;;;;;;;;;;;;;-4.33;60.77;103363.34;4170341;28;20394;-73
2024/01/09 10:27:05;;;;;;;;;;;;;;;-4.28;60.81;103358.03;4188742;28;20019;-73